Data for 07/18/2006

Time Sea-Level Adjusted Pressure Absolute Pressure Temperature Relative Humidity Dew Point   
(mb) (inHg) (mb) (inHg) (C) (F) (%) (C) (F)
00:05 1019 30.09 848 25.04 22 71.5 38 7 44.6
00:10 1019 30.09 848 25.04 21.6 71 41 7.9 46.1
00:15 1019 30.09 848 25.04 21.4 70.6 37 6.3 43.4
00:20 1019 30.09 848 25.04 21.5 70.6 40 7.4 45.3
00:25 1019 30.09 848 25.04 21.7 71.1 36 6.1 43
00:30 1019 30.09 848 25.04 21.9 71.4 39 7.4 45.4
00:35 1019 30.09 848 25.04 21.3 70.3 39 7 44.7
00:40 1019 30.09 848 25.04 21.5 70.6 40 7.5 45.6
00:45 1019 30.09 848 25.04 21.5 70.7 41 7.8 46
00:50 1019 30.09 848 25.04 21.2 70.2 39 7 44.6
00:55 1019 30.09 848 25.04 20.9 69.6 51 10.5 50.9
01:00 1019 30.09 848 25.04 20.3 68.5 46 8.4 47.1
01:05 1019 30.09 849 25.07 19.6 67.3 46 7.7 45.8
01:10 1019 30.09 849 25.07 19.8 67.6 49 9 48.2
01:15 1019 30.09 849 25.07 19.8 67.6 46 8.1 46.5
01:20 1019 30.09 849 25.07 19.8 67.7 44 7.3 45.2
01:25 1019 30.09 849 25.07 20 67.9 48 8.7 47.7
01:30 1019 30.09 849 25.07 20 68 42 7 44.6
01:35 1019 30.09 849 25.07 20 68.1 42 6.9 44.4
01:40 1019 30.09 848 25.04 20.2 68.4 41 6.7 44
01:45 1019 30.09 849 25.07 20.1 68.1 45 7.8 46
01:50 1019 30.09 849 25.07 19.6 67.3 42 6.5 43.6
01:55 1019 30.09 849 25.07 19.9 67.8 46 8 46.5
02:00 1019 30.09 849 25.07 19.4 67 50 8.8 47.9
02:05 1020 30.12 849 25.07 18.7 65.6 49 7.8 46.1
02:10 1020 30.12 849 25.07 18.1 64.6 53 8.5 47.3
02:15 1020 30.12 849 25.07 18.2 64.8 54 8.8 47.9
02:20 1020 30.12 849 25.07 18.4 65.1 47 6.9 44.4
02:25 1020 30.12 849 25.07 18.6 65.5 45 6.8 44.2
02:30 1020 30.12 849 25.07 18.7 65.7 48 7.5 45.5
02:35 1020 30.12 849 25.07 18.5 65.2 47 7.1 44.8
02:40 1020 30.12 849 25.07 18.6 65.4 46 6.7 44.1
02:45 1020 30.12 849 25.07 18.6 65.5 45 6.6 43.8
02:50 1020 30.12 849 25.07 18.7 65.6 44 6.3 43.3
02:55 1020 30.12 849 25.07 19.1 66.4 42 6 42.8
03:00 1020 30.12 849 25.07 19 66.3 42 6.1 43
03:05 1020 30.12 849 25.07 19.2 66.5 43 6.3 43.4
03:10 1020 30.12 849 25.07 19.2 66.6 42 6 42.8
03:15 1020 30.12 849 25.07 19.2 66.6 42 6 42.8
03:20 1020 30.12 849 25.07 19.1 66.3 42 6.1 43
03:25 1020 30.12 849 25.07 19 66.2 44 6.5 43.7
03:30 1020 30.12 849 25.07 18.7 65.6 45 6.5 43.8
03:35 1020 30.12 849 25.07 18.9 65.9 46 7 44.6
03:40 1020 30.12 849 25.07 18.8 65.9 43 6.2 43.2
03:45 1020 30.12 849 25.07 18.4 65.2 46 6.6 43.9
03:50 1020 30.12 849 25.07 18.1 64.6 45 6.1 43
03:55 1020 30.12 849 25.07 17.9 64.2 49 7.1 44.7
04:00 1020 30.12 849 25.07 17.2 63 50 7 44.5
04:05 1020 30.12 849 25.07 17.1 62.9 55 8 46.4
04:10 1020 30.12 849 25.07 17.3 63.1 49 6.4 43.6
04:15 1020 30.12 849 25.07 17.3 63.1 49 6.5 43.6
04:20 1020 30.12 849 25.07 17.4 63.2 48 6.3 43.3
04:25 1020 30.12 849 25.07 17.5 63.5 49 6.8 44.3
04:30 1020 30.12 849 25.07 17.6 63.7 47 6.3 43.3
04:35 1020 30.12 849 25.07 17.4 63.2 48 6.5 43.7
04:40 1020 30.12 849 25.07 17 62.6 50 6.6 43.9
04:45 1020 30.12 849 25.07 16.9 62.4 49 6.2 43.2
04:50 1020 30.12 849 25.07 17.1 62.9 47 5.8 42.5
04:55 1020 30.12 849 25.07 17.4 63.3 52 7.4 45.4
05:00 1020 30.12 849 25.07 17.4 63.3 47 6.1 43
05:05 1020 30.12 849 25.07 17.3 63.2 47 6.1 42.9
05:10 1020 30.12 849 25.07 17.1 62.8 49 6.5 43.7
05:15 1020 30.12 849 25.07 17.4 63.3 46 5.8 42.5
05:20 1020 30.12 849 25.07 17.9 64.2 44 5.6 42
05:25 1020 30.12 849 25.07 17.6 63.6 46 6 42.8
05:30 1020 30.12 849 25.07 17.2 63 49 6.7 44
05:35 1020 30.12 849 25.07 17.3 63.2 45 5.4 41.7
05:40 1020 30.12 849 25.07 17.2 63 47 6 42.8
05:45 1020 30.12 849 25.07 16.9 62.5 47 5.5 42
05:50 1020 30.12 849 25.07 17.2 62.9 48 6.3 43.3
05:55 1020 30.12 849 25.07 16.4 61.6 51 6.5 43.7
06:00 1020 30.12 849 25.07 15.9 60.5 51 5.9 42.7
06:05 1020 30.12 849 25.07 16.1 60.9 50 5.8 42.4
06:10 1020 30.12 849 25.07 16.6 61.8 47 5.3 41.6
06:15 1020 30.12 849 25.07 16.6 61.9 48 5.6 42
06:20 1020 30.12 849 25.07 16.5 61.7 48 5.5 42
06:25 1020 30.12 849 25.07 16.7 62.1 49 6.2 43.1
06:30 1020 30.12 849 25.07 16.9 62.4 47 5.6 42.1
06:35 1020 30.12 849 25.07 17.2 63 44 4.9 40.8
06:40 1020 30.12 849 25.07 17.6 63.6 43 5 40.9
06:45 1020 30.12 850 25.1 17.7 63.8 43 5.1 41.3
06:50 1020 30.12 850 25.1 17.5 63.5 45 5.7 42.3
06:55 1020 30.12 850 25.1 17.3 63.1 48 6.2 43.2
07:00 1021 30.15 850 25.1 17.2 62.9 49 6.5 43.7
07:05 1021 30.15 850 25.1 16.8 62.3 49 6.1 42.9
07:10 1021 30.15 850 25.1 17 62.5 49 6.2 43.2
07:15 1021 30.15 850 25.1 17.3 63.2 49 6.7 44
07:20 1021 30.15 850 25.1 17.8 64 45 5.7 42.2
07:25 1021 30.15 850 25.1 18 64.4 46 6.3 43.3
07:30 1021 30.15 850 25.1 18.2 64.7 46 6.4 43.6
07:35 1021 30.15 850 25.1 18.8 65.8 45 6.8 44.2
07:40 1021 30.15 850 25.1 18.8 65.9 43 6.2 43.2
07:45 1021 30.15 850 25.1 19 66.2 43 6.3 43.4
07:50 1021 30.15 850 25.1 19.3 66.7 48 8.2 46.8
07:55 1021 30.15 850 25.1 19.6 67.3 42 6.5 43.8
08:00 1021 30.15 850 25.1 19.7 67.5 46 8 46.3
08:05 1021 30.15 850 25.1 20.2 68.3 42 7 44.6
08:10 1021 30.15 850 25.1 20.7 69.2 43 7.9 46.2
08:15 1021 30.15 850 25.1 21 69.8 41 7.4 45.3
08:20 1021 30.15 850 25.1 21.3 70.3 43 8.3 46.9
08:25 1021 30.15 850 25.1 21.1 70 45 8.8 47.9
08:30 1021 30.15 850 25.1 21.5 70.7 41 7.9 46.2
08:35 1021 30.15 850 25.1 21.5 70.7 41 7.9 46.2
08:40 1021 30.15 850 25.1 22.1 71.8 40 8.2 46.8
08:45 1021 30.15 850 25.1 22.3 72.1 40 8.1 46.5
08:50 1021 30.15 850 25.1 22.4 72.3 38 7.4 45.2
08:55 1021 30.15 850 25.1 22.4 72.3 38 7.5 45.5
09:00 1021 30.15 850 25.1 23 73.3 36 7.3 45.1
09:05 1021 30.15 850 25.1 23.1 73.5 34 6.7 44.1
09:10 1020 30.12 850 25.1 23 73.5 33 6 42.8
09:15 1020 30.12 850 25.1 23.7 74.7 32 6.3 43.3
09:20 1020 30.12 850 25.1 24.2 75.6 32 6.9 44.4
09:25 1020 30.12 850 25.1 24.6 76.3 31 6.6 44
09:30 1020 30.12 850 25.1 25.1 77.2 31 6.9 44.5
09:35 1020 30.12 850 25.1 25.2 77.4 30 6.4 43.5
09:40 1020 30.12 850 25.1 25 77 30 6.4 43.6
09:45 1020 30.12 850 25.1 25.3 77.6 28 5.9 42.7
09:50 1020 30.12 850 25.1 25.9 78.7 28 6.5 43.7
09:55 1020 30.12 850 25.1 26 78.9 28 6.4 43.5
10:00 1020 30.12 850 25.1 26.1 79 28 6.7 44
10:05 1020 30.12 850 25.1 26.5 79.6 29 7.1 44.7
10:10 1020 30.12 850 25.1 26.2 79.2 30 7.4 45.2
10:15 1020 30.12 850 25.1 25.9 78.6 30 7.5 45.4
10:20 1020 30.12 849 25.07 25.4 77.8 31 7.3 45.1
10:25 1020 30.12 850 25.1 26.2 79.2 30 7.6 45.7
10:30 1020 30.12 849 25.07 26.3 79.3 29 7.1 44.8
10:35 1020 30.12 849 25.07 26.2 79.2 31 7.9 46.2
10:40 1020 30.12 849 25.07 26.5 79.6 31 8.1 46.7
10:45 1020 30.12 849 25.07 26.9 80.5 30 8 46.3
10:50 1020 30.12 849 25.07 26.6 79.9 31 8.4 47.1
10:55 1020 30.12 849 25.07 26.6 79.8 30 7.8 46.1
11:00 1020 30.12 849 25.07 26.7 80 28 6.7 44.1
11:05 1020 30.12 849 25.07 26.8 80.3 26 6.3 43.3
11:10 1020 30.12 849 25.07 27 80.7 27 6.6 43.9
11:15 1020 30.12 849 25.07 26.6 79.8 31 8.2 46.7
11:20 1020 30.12 849 25.07 26.3 79.4 30 7.5 45.6
11:25 1020 30.12 849 25.07 26.3 79.3 31 8.2 46.8
11:30 1020 30.12 849 25.07 27 80.6 29 7.9 46.3
11:35 1020 30.12 849 25.07 27.8 82 27 7.4 45.3
11:40 1020 30.12 849 25.07 27.4 81.2 28 7.7 45.9
11:45 1020 30.12 849 25.07 27.5 81.4 28 7.5 45.5
11:50 1020 30.12 849 25.07 28.3 83 27 7.8 46.1
11:55 1020 30.12 849 25.07 28.7 83.7 27 8.2 46.7
12:00 1020 30.12 849 25.07 29.3 84.7 29 9.7 49.4
12:05 1020 30.12 849 25.07 29.2 84.6 29 9.5 49
12:10 1020 30.12 849 25.07 29 84.2 27 8.3 46.9
12:15 1020 30.12 849 25.07 28.8 83.8 28 8.6 47.5
12:20 1019 30.09 849 25.07 28.6 83.4 27 7.9 46.2
12:25 1019 30.09 849 25.07 28.9 84.1 27 8.4 47.1
12:30 1019 30.09 849 25.07 29.3 84.8 26 8.2 46.7
12:35 1019 30.09 849 25.07 29.2 84.5 24 7 44.5
12:40 1019 30.09 848 25.04 28.5 83.4 27 8 46.4
12:45 1019 30.09 848 25.04 28.6 83.5 27 7.9 46.3
12:50 1019 30.09 848 25.04 29.2 84.6 25 7.7 45.8
12:55 1019 30.09 848 25.04 29 84.2 25 7.4 45.4
13:00 1019 30.09 848 25.04 29.1 84.4 24 6.9 44.5
13:05 1019 30.09 848 25.04 29.6 85.3 24 7.1 44.8
13:10 1019 30.09 848 25.04 29.6 85.3 24 7.3 45.2
13:15 1019 30.09 848 25.04 29.3 84.8 24 7 44.7
13:20 1019 30.09 848 25.04 29.5 85 24 7.3 45.1
13:25 1019 30.09 848 25.04 29.9 85.7 23 7 44.5
13:30 1019 30.09 848 25.04 30 85.9 23 6.9 44.4
13:35 1019 30.09 848 25.04 30.2 86.3 22 6.1 43
13:40 1019 30.09 848 25.04 30.4 86.7 22 6.6 43.9
13:45 1018 30.06 848 25.04 30.7 87.3 21 6.3 43.4
13:50 1018 30.06 848 25.04 30.3 86.5 21 5.9 42.6
13:55 1018 30.06 848 25.04 30.4 86.7 20 5.3 41.6
14:00 1018 30.06 847 25.01 30.6 87.1 21 6 42.7
14:05 1018 30.06 847 25.01 31.1 88 20 5.6 42
14:10 1018 30.06 847 25.01 31.7 89.1 20 6.3 43.3
14:15 1018 30.06 847 25.01 31.4 88.4 20 6.3 43.4
14:20 1018 30.06 847 25.01 31.1 88 19 5.5 41.8
14:25 1018 30.06 847 25.01 31.3 88.3 19 5.1 41.2
14:30 1018 30.06 847 25.01 31.3 88.4 19 5.2 41.3
14:35 1018 30.06 847 25.01 30.9 87.7 20 6 42.7
14:40 1018 30.06 847 25.01 31 87.9 19 5.3 41.5
14:45 1018 30.06 847 25.01 31.5 88.8 18 4.9 40.8
14:50 1018 30.06 847 25.01 31.1 87.9 19 5 40.9
14:55 1018 30.06 847 25.01 31.2 88.2 18 4.8 40.7
15:00 1018 30.06 847 25.01 31.4 88.5 18 4.9 40.8
15:05 1018 30.06 847 25.01 31.6 88.9 18 4.6 40.3
15:10 1018 30.06 847 25.01 31.7 89.1 18 4.6 40.4
15:15 1018 30.06 847 25.01 31.8 89.3 17 4.4 39.9
15:20 1017 30.03 847 25.01 32.2 89.9 17 4.4 39.9
15:25 1017 30.03 847 25.01 32.4 90.2 16 3.7 38.7
15:30 1017 30.03 847 25.01 32.4 90.4 16 4 39.1
15:35 1017 30.03 846 24.98 32.2 90 16 4 39.1
15:40 1017 30.03 846 24.98 32 89.6 17 4.3 39.7
15:45 1017 30.03 846 24.98 32.1 89.9 16 3.7 38.6
15:50 1017 30.03 846 24.98 32.4 90.3 16 3.7 38.7
15:55 1017 30.03 846 24.98 32.4 90.3 16 3.4 38.1
16:00 1017 30.03 846 24.98 32 89.6 16 3.4 38
16:05 1017 30.03 846 24.98 32.5 90.5 15 3.2 37.8
16:10 1017 30.03 846 24.98 32.8 91 15 3.1 37.5
16:15 1017 30.03 846 24.98 32.6 90.6 15 3.3 38
16:20 1017 30.03 846 24.98 33.1 91.5 15 3 37.4
16:25 1017 30.03 846 24.98 32.8 91.1 15 3.1 37.6
16:30 1017 30.03 846 24.98 32.5 90.6 15 3.2 37.8
16:35 1017 30.03 846 24.98 32.2 89.9 15 2.5 36.5
16:40 1017 30.03 846 24.98 32.6 90.7 15 2.9 37.2
16:45 1017 30.03 846 24.98 33 91.4 15 3.4 38.1
16:50 1017 30.03 846 24.98 33.5 92.2 14 2.7 36.9
16:55 1017 30.03 846 24.98 33.4 92.1 15 3.7 38.6
17:00 1017 30.03 846 24.98 33.6 92.4 14 2.9 37.2
17:05 1017 30.03 846 24.98 34.3 93.7 14 3.6 38.5
17:10 1016 30 846 24.98 34.5 94.1 14 3.9 39
17:15 1016 30 846 24.98 34.2 93.5 15 3.8 38.9
17:20 1016 30 846 24.98 33.7 92.6 15 4.2 39.6
17:25 1016 30 846 24.98 32.4 90.4 15 2.7 36.8
17:30 1016 30 846 24.98 32.8 91 14 2.6 36.8
17:35 1016 30 846 24.98 34 93.2 14 3.2 37.7
17:40 1016 30 845 24.95 33.9 93 15 3.9 39
17:45 1016 30 845 24.95 32.3 90.1 16 3.7 38.7
17:50 1016 30 845 24.95 31.9 89.5 19 5.8 42.5
17:55 1016 30 845 24.95 31.8 89.3 17 4.2 39.6
18:00 1016 30 845 24.95 32.1 89.7 16 3.3 37.9
18:05 1016 30 845 24.95 31.7 89 19 5.6 42
18:10 1016 30 845 24.95 31.1 88 22 7.1 44.8
18:15 1016 30 845 24.95 30.8 87.4 21 6.2 43.2
18:20 1016 30 845 24.95 30.9 87.5 21 6.1 43
18:25 1016 30 845 24.95 31.2 88.1 21 6.4 43.5
18:30 1016 30 845 24.95 30.9 87.7 21 6.7 44
18:35 1016 30 845 24.95 30.8 87.4 21 6.6 43.8
18:40 1016 30 845 24.95 31.4 88.6 20 5.9 42.6
18:45 1016 30 845 24.95 32 89.6 20 6.5 43.7
18:50 1016 30 845 24.95 32.2 89.9 19 5.7 42.2
18:55 1016 30 845 24.95 32.6 90.6 18 5.6 42.1
19:00 1016 30 845 24.95 32.9 91.2 17 4.9 40.9
19:05 1016 30 845 24.95 33 91.3 19 6.6 43.9
19:10 1016 30 845 24.95 32.4 90.3 19 6.3 43.4
19:15 1016 30 845 24.95 31.8 89.2 21 7.2 45
19:20 1016 30 845 24.95 31.1 88.1 20 6.2 43.1
19:25 1016 30 845 24.95 30.8 87.5 22 6.8 44.3
19:30 1016 30 845 24.95 30.4 86.8 22 6.6 44
19:35 1016 30 845 24.95 30.4 86.6 21 6.1 43
19:40 1016 30 845 24.95 30.4 86.6 26 9.3 48.8
19:45 1016 30 845 24.95 30.3 86.5 21 5.6 42
19:50 1016 30 845 24.95 30.1 86.1 23 6.8 44.3
19:55 1016 30 845 24.95 29.8 85.6 24 7.3 45.2
20:00 1016 30 845 24.95 29.9 85.8 22 6.1 43.1
20:05 1016 30 845 24.95 30 86 21 5.5 41.9
20:10 1016 30 845 24.95 30 86 23 6.9 44.3
20:15 1016 30 845 24.95 29.8 85.7 24 7.5 45.6
20:20 1016 30 845 24.95 29.6 85.4 26 8.4 47.1
20:25 1016 30 845 24.95 29.4 85 23 6.8 44.2
20:30 1016 30 845 24.95 29.3 84.7 21 4.8 40.6
20:35 1016 30 845 24.95 29 84.2 20 4.3 39.8
20:40 1016 30 845 24.95 28.6 83.4 19 3.3 37.9
20:45 1016 30 845 24.95 28.2 82.8 20 3.2 37.7
20:50 1016 30 846 24.98 27.9 82.1 20 3.1 37.6
20:55 1016 30 846 24.98 27.5 81.6 20 3 37.4
21:00 1017 30.03 846 24.98 27.3 81.1 20 2.6 36.7
21:05 1017 30.03 846 24.98 27 80.7 20 2.8 37
21:10 1017 30.03 846 24.98 26.8 80.3 21 3.2 37.7
21:15 1017 30.03 846 24.98 26.6 79.8 21 2.5 36.4
21:20 1017 30.03 846 24.98 26.3 79.4 22 3 37.3
21:25 1017 30.03 846 24.98 26.1 78.9 22 3.1 37.5
21:30 1017 30.03 846 24.98 25.8 78.4 25 4.3 39.8
21:35 1017 30.03 846 24.98 23.7 74.7 29 4.7 40.4
21:40 1017 30.03 847 25.01 23.3 73.9 29 4.3 39.8
21:45 1017 30.03 847 25.01 23.3 74 26 3 37.4
21:50 1017 30.03 847 25.01 24.1 75.3 24 2.4 36.3
21:55 1018 30.06 847 25.01 23.8 74.9 26 3.5 38.4
22:00 1018 30.06 847 25.01 23.8 74.9 24 2.2 35.9
22:05 1018 30.06 847 25.01 24.1 75.4 24 2.5 36.4
22:10 1018 30.06 847 25.01 23.5 74.3 26 3.4 38.1
22:15 1018 30.06 847 25.01 23.3 73.9 25 2.5 36.4
22:20 1018 30.06 847 25.01 23.3 73.9 25 2.1 35.8
22:25 1018 30.06 847 25.01 23.5 74.4 22 1 33.8
22:30 1018 30.06 847 25.01 23.5 74.4 23 1.6 34.8
22:35 1018 30.06 847 25.01 23.7 74.6 22 0.7 33.3
22:40 1018 30.06 847 25.01 23.8 74.9 21 0.4 32.6
22:45 1018 30.06 847 25.01 24 75.2 21 0.4 32.7
22:50 1018 30.06 847 25.01 23.9 75 22 1.2 34.1
22:55 1018 30.06 848 25.04 23.2 73.7 25 2.4 36.3
23:00 1018 30.06 848 25.04 22.2 71.9 28 2.9 37.2
23:05 1018 30.06 848 25.04 21.4 70.6 28 2.3 36.2
23:10 1018 30.06 848 25.04 21.3 70.4 28 2.5 36.4
23:15 1019 30.09 848 25.04 21.3 70.4 28 2.3 36.1
23:20 1019 30.09 848 25.04 21 69.9 30 3 37.5
23:25 1019 30.09 848 25.04 20.6 69.1 32 3.7 38.6
23:30 1019 30.09 848 25.04 20.5 69 29 2.2 35.9
23:35 1019 30.09 848 25.04 20.5 68.8 30 2.4 36.2
23:40 1019 30.09 848 25.04 20.3 68.5 31 2.7 36.9
23:45 1019 30.09 848 25.04 20.1 68.1 30 2.1 35.9
23:50 1019 30.09 848 25.04 20 67.9 31 2.3 36.2
23:55 1019 30.09 848 25.04 19.8 67.6 31 2.1 35.8
24:00 1019 30.09 848 25.04 19.9 67.9 30 1.8 35.3